Terminal Aerodrome Forecast
Issued by NWS

Current Version | Previous Version | Graphics & Text | Print | Product List | Glossary On
Versions: 1 2 3 4 5 6 7 8 9 10 11 12 13 14 15 16 17 18
000
FTUS41 KPBZ 142341 CCA
TAFHLG
TAF COR
KHLG 142341Z 1500/1524 VRB03KT P6SM BKN250
      TEMPO 1509/1512 5SM BR
     FM151500 VRB05KT P6SM SCT035=

USA.gov is the U.S. government's official web portal to all federal, state and local government web resources and services.